Hellas Glory — 9HWN9 — position and weather

sailwx.info

Track history (hours):
 
Tides and Currents Weather Stations Pressure Air Temp Water Temp Dewpoint Dewpoint Depression Visibility Wind Speed Wind Dir Waves Ship Positions

Hellas Glory

Last reported at 2017-May-29 08:08 UTC. Time now 2017-May-30 07:26 UTC.
Position S 21°07' E 056°52'.

Length 225 m; draft 10 m.

Type: Tanker. MMSI: 249636000.

Date/timePositionNaut miles runAvg speedWind from/ knotsBaromVisibWave heightAir tempDewpointWater temp
2017-May-29 08:08S 21°07' E 056°52'315.6
2017-May-29 07:55S 21°08' E 056°49'  
2017-May-23 08:10S 34°07' E 017°55'315.1
2017-May-23 08:00S 34°05' E 017°54'1514.9
2017-May-23 06:58S 33°52' E 017°43'714.9
2017-May-23 06:30S 33°46' E 017°38'815.6
2017-May-23 06:00S 33°40' E 017°33'815.6
2017-May-23 05:30S 33°34' E 017°28'815.5
2017-May-23 05:00S 33°27' E 017°23'815.5
2017-May-23 04:30S 33°21' E 017°17'915.6
2017-May-23 03:56S 33°14' E 017°11'  
Track history (hours):
 
Tides and Currents Weather Stations Pressure Air Temp Water Temp Dewpoint Dewpoint Depression Visibility Wind Speed Wind Dir Waves Ship Positions

Hellas Glory

Last reported at 2017-May-29 08:08 UTC. Time now 2017-May-30 07:26 UTC.
Position S 21°07' E 056°52'.

Length 225 m; draft 10 m.

Type: Tanker. MMSI: 249636000.

Date/timePositionNaut miles runAvg speedWind from/ knotsBaromVisibWave heightAir tempDewpointWater temp
2017-May-29 08:08S 21°07' E 056°52'315.6
2017-May-29 07:55S 21°08' E 056°49'  
2017-May-23 08:10S 34°07' E 017°55'315.1
2017-May-23 08:00S 34°05' E 017°54'1514.9
2017-May-23 06:58S 33°52' E 017°43'714.9
2017-May-23 06:30S 33°46' E 017°38'815.6
2017-May-23 06:00S 33°40' E 017°33'815.6
2017-May-23 05:30S 33°34' E 017°28'815.5
2017-May-23 05:00S 33°27' E 017°23'815.5
2017-May-23 04:30S 33°21' E 017°17'915.6
2017-May-23 03:56S 33°14' E 017°11'  

Dump ship's entire track history